Terminal Aerodrome Forecast
Issued by NWS Nashville, TN

Home | Current Version | Previous Version | Text Only | Print | Product List | Glossary On
Versions: 1 2 3 4 5 6 7 8 9 10 11 12 13 14 15 16 17 18 19 20 21 22 23 24 25 26 27 28 29 30 31 32 33 34
000
FTUS44 KOHX 182300
TAFCSV
TAF
KCSV 182326Z 1900/1924 14004KT P6SM VCSH BKN040
     FM190600 10003KT 4SM -SHRA BR OVC025
     FM191100 14006KT 2SM SHRA BR OVC005
     FM191800 20008KT P6SM VCSH OVC025
     FM192100 23009KT P6SM VCTS BKN050CB=

USA.gov is the U.S. government's official web portal to all federal, state and local government web resources and services.